sensor_id;sensor_type;location;lat;lon;timestamp;pressure;altitude;pressure_sealevel;temperature;humidity
61961;BME280;47923;42.506;24.192;2023-04-05T00:01:20;94403.34;;;-1.08;81.47
61961;BME280;47923;42.506;24.192;2023-04-05T00:03:46;94628.69;;;0.06;82.04
61961;BME280;47923;42.506;24.192;2023-04-05T00:06:12;94747.06;;;1.16;81.85
61961;BME280;47923;42.506;24.192;2023-04-05T00:08:38;94658.09;;;0.61;81.80
61961;BME280;47923;42.506;24.192;2023-04-05T00:11:03;94743.59;;;1.15;81.81
61961;BME280;47923;42.506;24.192;2023-04-05T00:13:29;94738.59;;;1.14;81.83
61961;BME280;47923;42.506;24.192;2023-04-05T00:15:54;94471.25;;;-0.64;82.00
61961;BME280;47923;42.506;24.192;2023-04-05T00:18:22;94558.56;;;-0.11;81.79
61961;BME280;47923;42.506;24.192;2023-04-05T00:20:51;94638.72;;;0.35;82.01
61961;BME280;47923;42.506;24.192;2023-04-05T00:23:17;94652.31;;;0.50;81.90
61961;BME280;47923;42.506;24.192;2023-04-05T00:25:43;94706.25;;;0.86;82.38
61961;BME280;47923;42.506;24.192;2023-04-05T00:28:12;94759.25;;;1.08;83.03
61961;BME280;47923;42.506;24.192;2023-04-05T00:30:38;94753.63;;;1.01;82.30
61961;BME280;47923;42.506;24.192;2023-04-05T00:33:04;94695.63;;;0.51;81.96
61961;BME280;47923;42.506;24.192;2023-04-05T00:35:29;94735.66;;;0.80;82.48
61961;BME280;47923;42.506;24.192;2023-04-05T00:37:55;94754.44;;;0.93;82.20
61961;BME280;47923;42.506;24.192;2023-04-05T00:40:21;94658.56;;;0.28;82.46
61961;BME280;47923;42.506;24.192;2023-04-05T00:42:47;94712.03;;;0.62;82.62
61961;BME280;47923;42.506;24.192;2023-04-05T00:45:13;94754.59;;;0.96;83.05
61961;BME280;47923;42.506;24.192;2023-04-05T00:47:40;94585.88;;;-0.19;82.52
61961;BME280;47923;42.506;24.192;2023-04-05T00:50:07;94678.75;;;0.38;83.31
61961;BME280;47923;42.506;24.192;2023-04-05T00:52:34;94662.16;;;0.33;83.19
61961;BME280;47923;42.506;24.192;2023-04-05T00:55:03;94548.09;;;-0.33;82.39
61961;BME280;47923;42.506;24.192;2023-04-05T00:57:30;94762.09;;;1.03;82.26
61961;BME280;47923;42.506;24.192;2023-04-05T00:59:59;94756.63;;;0.99;82.05
61961;BME280;47923;42.506;24.192;2023-04-05T01:02:31;94649.97;;;0.32;82.15
61961;BME280;47923;42.506;24.192;2023-04-05T01:05:02;94698.28;;;0.60;82.34
61961;BME280;47923;42.506;24.192;2023-04-05T01:10:38;94716.44;;;0.66;82.45
61961;BME280;47923;42.506;24.192;2023-04-05T01:13:05;94705.63;;;0.54;82.72
61961;BME280;47923;42.506;24.192;2023-04-05T01:15:31;94707.06;;;0.51;82.61
61961;BME280;47923;42.506;24.192;2023-04-05T01:17:57;94783.03;;;0.87;82.73
61961;BME280;47923;42.506;24.192;2023-04-05T01:20:27;94590.09;;;-0.26;82.44
61961;BME280;47923;42.506;24.192;2023-04-05T01:31:30;94763.66;;;0.69;83.81
61961;BME280;47923;42.506;24.192;2023-04-05T01:34:07;94767.69;;;0.58;83.78
61961;BME280;47923;42.506;24.192;2023-04-05T01:36:40;94768.47;;;0.50;84.19
61961;BME280;47923;42.506;24.192;2023-04-05T01:39:10;94701.16;;;-0.11;84.81
61961;BME280;47923;42.506;24.192;2023-04-05T01:41:40;94770.31;;;0.32;84.87
61961;BME280;47923;42.506;24.192;2023-04-05T01:44:06;94743.53;;;0.03;85.63
61961;BME280;47923;42.506;24.192;2023-04-05T01:46:31;94647.13;;;-0.64;85.44
61961;BME280;47923;42.506;24.192;2023-04-05T01:48:57;94785.91;;;0.16;85.73
61961;BME280;47923;42.506;24.192;2023-04-05T01:51:22;94776.84;;;0.17;86.29
61961;BME280;47923;42.506;24.192;2023-04-05T01:53:48;94781.97;;;0.14;85.98
61961;BME280;47923;42.506;24.192;2023-04-05T01:56:13;94779.50;;;0.17;86.22
61961;BME280;47923;42.506;24.192;2023-04-05T01:58:39;94626.00;;;-0.77;85.44
61961;BME280;47923;42.506;24.192;2023-04-05T02:01:04;94793.59;;;0.26;85.86
61961;BME280;47923;42.506;24.192;2023-04-05T02:03:30;94779.41;;;0.31;85.50
61961;BME280;47923;42.506;24.192;2023-04-05T02:05:56;94557.41;;;-1.10;85.00
61961;BME280;47923;42.506;24.192;2023-04-05T02:08:22;94797.69;;;0.41;85.36
61961;BME280;47923;42.506;24.192;2023-04-05T02:10:48;94682.22;;;-0.27;84.69
61961;BME280;47923;42.506;24.192;2023-04-05T02:13:14;94787.84;;;0.50;84.25
61961;BME280;47923;42.506;24.192;2023-04-05T02:15:39;94580.28;;;-0.83;84.14
61961;BME280;47923;42.506;24.192;2023-04-05T02:18:05;94791.34;;;0.60;84.11
61961;BME280;47923;42.506;24.192;2023-04-05T02:20:32;94792.44;;;0.67;83.83
61961;BME280;47923;42.506;24.192;2023-04-05T02:22:57;94577.06;;;-0.63;83.70
61961;BME280;47923;42.506;24.192;2023-04-05T02:25:25;94662.44;;;-0.04;82.70
61961;BME280;47923;42.506;24.192;2023-04-05T02:27:50;94496.56;;;-1.15;82.78
61961;BME280;47923;42.506;24.192;2023-04-05T02:30:16;94806.19;;;0.95;82.45
61961;BME280;47923;42.506;24.192;2023-04-05T02:32:42;94801.38;;;0.97;82.54
61961;BME280;47923;42.506;24.192;2023-04-05T02:35:08;94597.88;;;-0.39;81.87
61961;BME280;47923;42.506;24.192;2023-04-05T02:37:34;94711.41;;;0.39;81.76
61961;BME280;47923;42.506;24.192;2023-04-05T02:40:01;94805.44;;;1.03;81.79
61961;BME280;47923;42.506;24.192;2023-04-05T02:42:26;94637.75;;;-0.13;81.54
61961;BME280;47923;42.506;24.192;2023-04-05T02:44:52;94817.97;;;1.03;81.65
61961;BME280;47923;42.506;24.192;2023-04-05T02:47:18;94629.78;;;-0.13;81.39
61961;BME280;47923;42.506;24.192;2023-04-05T02:49:49;94630.25;;;-0.19;81.30
61961;BME280;47923;42.506;24.192;2023-04-05T02:52:15;94673.84;;;0.06;81.43
61961;BME280;47923;42.506;24.192;2023-04-05T02:54:41;94811.53;;;0.78;81.71
61961;BME280;47923;42.506;24.192;2023-04-05T02:57:07;94801.34;;;0.71;82.61
61961;BME280;47923;42.506;24.192;2023-04-05T02:59:36;94815.09;;;0.65;82.85
61961;BME280;47923;42.506;24.192;2023-04-05T03:02:03;94798.22;;;0.61;83.24
61961;BME280;47923;42.506;24.192;2023-04-05T03:04:28;94766.38;;;0.21;83.07
61961;BME280;47923;42.506;24.192;2023-04-05T03:06:54;94671.38;;;-0.48;83.95
61961;BME280;47923;42.506;24.192;2023-04-05T03:09:21;94758.50;;;-0.02;84.11
61961;BME280;47923;42.506;24.192;2023-04-05T03:11:47;94536.25;;;-1.63;84.40
61961;BME280;47923;42.506;24.192;2023-04-05T03:14:13;94805.28;;;0.17;84.92
61961;BME280;47923;42.506;24.192;2023-04-05T03:16:38;94752.97;;;-0.22;85.46
61961;BME280;47923;42.506;24.192;2023-04-05T03:19:04;94641.84;;;-0.95;85.61
61961;BME280;47923;42.506;24.192;2023-04-05T03:21:30;94167.06;;;-4.06;85.43
61961;BME280;47923;42.506;24.192;2023-04-05T03:23:56;94813.91;;;0.22;85.52
61961;BME280;47923;42.506;24.192;2023-04-05T03:26:22;94796.66;;;0.11;85.21
61961;BME280;47923;42.506;24.192;2023-04-05T03:28:48;94818.59;;;0.25;84.68
61961;BME280;47923;42.506;24.192;2023-04-05T03:31:14;94679.88;;;-0.68;84.47
61961;BME280;47923;42.506;24.192;2023-04-05T03:33:41;94775.50;;;-0.11;84.79
61961;BME280;47923;42.506;24.192;2023-04-05T03:36:07;94351.34;;;-2.86;84.30
61961;BME280;47923;42.506;24.192;2023-04-05T03:38:33;94666.34;;;-0.89;84.65
61961;BME280;47923;42.506;24.192;2023-04-05T03:40:58;94844.34;;;0.16;84.68
61961;BME280;47923;42.506;24.192;2023-04-05T03:43:24;94669.31;;;-0.91;84.98
61961;BME280;47923;42.506;24.192;2023-04-05T03:45:49;94729.84;;;-0.62;84.67
61961;BME280;47923;42.506;24.192;2023-04-05T03:48:15;94834.13;;;0.01;85.21
61961;BME280;47923;42.506;24.192;2023-04-05T03:50:47;94836.91;;;-0.04;85.59
61961;BME280;47923;42.506;24.192;2023-04-05T03:53:12;94775.66;;;-0.47;85.92
61961;BME280;47923;42.506;24.192;2023-04-05T03:55:41;94447.41;;;-2.68;85.79
61961;BME280;47923;42.506;24.192;2023-04-05T03:58:10;94601.63;;;-1.73;86.33
61961;BME280;47923;42.506;24.192;2023-04-05T04:00:36;94843.91;;;-0.08;86.15
61961;BME280;47923;42.506;24.192;2023-04-05T04:03:01;94857.97;;;-0.08;85.60
61961;BME280;47923;42.506;24.192;2023-04-05T04:05:28;94875.19;;;-0.05;86.28
61961;BME280;47923;42.506;24.192;2023-04-05T04:07:53;94771.88;;;-0.55;86.25
61961;BME280;47923;42.506;24.192;2023-04-05T04:10:19;94858.19;;;0.05;85.87
61961;BME280;47923;42.506;24.192;2023-04-05T04:12:44;94625.94;;;-1.48;85.19
61961;BME280;47923;42.506;24.192;2023-04-05T04:15:10;94885.94;;;0.21;84.94
61961;BME280;47923;42.506;24.192;2023-04-05T04:17:36;94877.84;;;0.26;84.56
61961;BME280;47923;42.506;24.192;2023-04-05T04:20:03;94824.63;;;-0.22;84.12
61961;BME280;47923;42.506;24.192;2023-04-05T04:22:36;94876.50;;;0.46;83.56
61961;BME280;47923;42.506;24.192;2023-04-05T04:25:07;94894.50;;;0.58;83.21
61961;BME280;47923;42.506;24.192;2023-04-05T04:27:37;94885.50;;;0.76;82.74
61961;BME280;47923;42.506;24.192;2023-04-05T04:30:13;94801.56;;;0.26;81.74
61961;BME280;47923;42.506;24.192;2023-04-05T04:32:41;94781.09;;;0.27;81.31
61961;BME280;47923;42.506;24.192;2023-04-05T04:35:26;94837.66;;;0.85;80.34
61961;BME280;47923;42.506;24.192;2023-04-05T04:37:56;94893.25;;;1.29;79.60
61961;BME280;47923;42.506;24.192;2023-04-05T04:42:57;94837.19;;;1.00;78.80
61961;BME280;47923;42.506;24.192;2023-04-05T04:45:25;94835.81;;;1.11;78.64
61961;BME280;47923;42.506;24.192;2023-04-05T04:47:51;94843.16;;;1.05;77.94
61961;BME280;47923;42.506;24.192;2023-04-05T04:50:18;94830.00;;;0.83;78.10
61961;BME280;47923;42.506;24.192;2023-04-05T04:52:44;94899.03;;;1.23;78.71
61961;BME280;47923;42.506;24.192;2023-04-05T04:55:11;94895.13;;;1.20;78.94
61961;BME280;47923;42.506;24.192;2023-04-05T04:57:39;94710.25;;;-0.04;78.56
61961;BME280;47923;42.506;24.192;2023-04-05T05:00:07;94905.91;;;1.24;78.89
61961;BME280;47923;42.506;24.192;2023-04-05T05:02:39;94903.09;;;1.37;79.46
61961;BME280;47923;42.506;24.192;2023-04-05T05:05:06;94431.38;;;-1.73;77.93
61961;BME280;47923;42.506;24.192;2023-04-05T05:07:32;94897.63;;;1.34;77.94
61961;BME280;47923;42.506;24.192;2023-04-05T05:09:58;94842.19;;;0.84;78.29
61961;BME280;47923;42.506;24.192;2023-04-05T05:12:23;94900.16;;;1.48;78.45
61961;BME280;47923;42.506;24.192;2023-04-05T05:14:51;94900.59;;;1.50;77.45
61961;BME280;47923;42.506;24.192;2023-04-05T05:17:16;94899.66;;;1.63;77.22
61961;BME280;47923;42.506;24.192;2023-04-05T05:19:41;94853.19;;;1.26;77.03
61961;BME280;47923;42.506;24.192;2023-04-05T05:22:07;94665.28;;;0.09;76.70
61961;BME280;47923;42.506;24.192;2023-04-05T05:24:32;94902.94;;;1.77;76.67
61961;BME280;47923;42.506;24.192;2023-04-05T05:26:58;94911.06;;;1.89;76.63
61961;BME280;47923;42.506;24.192;2023-04-05T05:29:23;94669.03;;;0.34;75.60
61961;BME280;47923;42.506;24.192;2023-04-05T05:31:50;94858.63;;;1.64;75.61
61961;BME280;47923;42.506;24.192;2023-04-05T05:34:15;94925.00;;;1.95;75.75
61961;BME280;47923;42.506;24.192;2023-04-05T05:36:41;94910.25;;;1.98;74.98
61961;BME280;47923;42.506;24.192;2023-04-05T05:39:07;94915.13;;;1.96;75.15
61961;BME280;47923;42.506;24.192;2023-04-05T05:41:33;94880.22;;;1.80;75.11
61961;BME280;47923;42.506;24.192;2023-04-05T05:43:59;94723.16;;;0.81;74.78
61961;BME280;47923;42.506;24.192;2023-04-05T05:46:25;94916.50;;;2.19;74.87
61961;BME280;47923;42.506;24.192;2023-04-05T05:48:50;94372.28;;;-1.34;73.70
61961;BME280;47923;42.506;24.192;2023-04-05T05:51:16;94917.59;;;2.18;74.34
61961;BME280;47923;42.506;24.192;2023-04-05T05:53:43;94903.69;;;2.04;74.17
61961;BME280;47923;42.506;24.192;2023-04-05T05:56:09;94924.00;;;2.26;74.02
61961;BME280;47923;42.506;24.192;2023-04-05T05:58:35;94895.53;;;2.09;73.43
61961;BME280;47923;42.506;24.192;2023-04-05T06:01:01;94735.34;;;0.99;73.88
61961;BME280;47923;42.506;24.192;2023-04-05T06:03:28;94709.06;;;0.80;73.62
61961;BME280;47923;42.506;24.192;2023-04-05T06:05:56;94932.78;;;2.26;74.00
61961;BME280;47923;42.506;24.192;2023-04-05T06:08:23;94884.56;;;2.02;72.86
61961;BME280;47923;42.506;24.192;2023-04-05T06:10:49;94910.88;;;2.20;73.08
61961;BME280;47923;42.506;24.192;2023-04-05T06:13:15;94943.09;;;2.45;73.03
61961;BME280;47923;42.506;24.192;2023-04-05T06:15:42;94927.88;;;2.45;72.67
61961;BME280;47923;42.506;24.192;2023-04-05T06:18:07;94948.91;;;2.38;72.79
61961;BME280;47923;42.506;24.192;2023-04-05T06:20:33;94776.13;;;1.38;73.16
61961;BME280;47923;42.506;24.192;2023-04-05T06:22:59;94955.66;;;2.27;73.15
61961;BME280;47923;42.506;24.192;2023-04-05T06:25:25;94941.69;;;2.39;73.55
61961;BME280;47923;42.506;24.192;2023-04-05T06:27:51;94784.47;;;1.10;73.42
61961;BME280;47923;42.506;24.192;2023-04-05T06:30:17;94482.78;;;-0.77;73.31
61961;BME280;47923;42.506;24.192;2023-04-05T06:32:45;94954.41;;;2.33;73.07
61961;BME280;47923;42.506;24.192;2023-04-05T06:35:12;94852.34;;;1.69;73.44
61961;BME280;47923;42.506;24.192;2023-04-05T06:37:38;94946.75;;;2.23;73.64
61961;BME280;47923;42.506;24.192;2023-04-05T06:40:04;94943.94;;;2.11;73.34
61961;BME280;47923;42.506;24.192;2023-04-05T06:42:29;94969.63;;;2.24;73.38
61961;BME280;47923;42.506;24.192;2023-04-05T06:44:55;94964.03;;;2.00;73.52
61961;BME280;47923;42.506;24.192;2023-04-05T06:47:20;94853.50;;;1.33;74.07
61961;BME280;47923;42.506;24.192;2023-04-05T06:49:46;94942.22;;;2.15;73.78
61961;BME280;47923;42.506;24.192;2023-04-05T06:52:11;94933.75;;;2.04;73.42
61961;BME280;47923;42.506;24.192;2023-04-05T06:54:37;94907.75;;;2.01;73.26
61961;BME280;47923;42.506;24.192;2023-04-05T06:57:03;94976.19;;;2.44;72.48
61961;BME280;47923;42.506;24.192;2023-04-05T06:59:28;94984.31;;;2.47;72.37
61961;BME280;47923;42.506;24.192;2023-04-05T07:01:55;94798.53;;;1.28;72.61
61961;BME280;47923;42.506;24.192;2023-04-05T07:04:20;94954.78;;;2.14;72.72
61961;BME280;47923;42.506;24.192;2023-04-05T07:06:46;94977.66;;;2.80;72.12
61961;BME280;47923;42.506;24.192;2023-04-05T07:09:12;94910.31;;;2.44;71.07
61961;BME280;47923;42.506;24.192;2023-04-05T07:11:37;94990.09;;;3.05;71.01
61961;BME280;47923;42.506;24.192;2023-04-05T07:14:04;94995.25;;;3.10;70.40
61961;BME280;47923;42.506;24.192;2023-04-05T07:16:30;94995.03;;;3.24;70.09
61961;BME280;47923;42.506;24.192;2023-04-05T07:18:56;94939.56;;;3.00;69.46
61961;BME280;47923;42.506;24.192;2023-04-05T07:21:22;94680.81;;;1.23;68.20
61961;BME280;47923;42.506;24.192;2023-04-05T07:23:48;94934.50;;;3.07;68.57
61961;BME280;47923;42.506;24.192;2023-04-05T07:26:14;95017.16;;;3.54;68.29
61961;BME280;47923;42.506;24.192;2023-04-05T07:28:39;95021.63;;;3.92;67.54
61961;BME280;47923;42.506;24.192;2023-04-05T07:31:06;95017.41;;;4.11;66.03
61961;BME280;47923;42.506;24.192;2023-04-05T07:33:32;94853.53;;;3.03;65.10
61961;BME280;47923;42.506;24.192;2023-04-05T07:35:58;94701.91;;;2.13;64.45
61961;BME280;47923;42.506;24.192;2023-04-05T07:38:25;95025.97;;;4.38;64.19
61961;BME280;47923;42.506;24.192;2023-04-05T07:40:51;95042.44;;;4.40;63.82
61961;BME280;47923;42.506;24.192;2023-04-05T07:43:19;95023.72;;;4.40;62.32
61961;BME280;47923;42.506;24.192;2023-04-05T07:45:45;94948.25;;;3.68;64.28
61961;BME280;47923;42.506;24.192;2023-04-05T07:48:11;94924.31;;;3.51;63.87
61961;BME280;47923;42.506;24.192;2023-04-05T07:50:36;95042.44;;;4.07;64.33
61961;BME280;47923;42.506;24.192;2023-04-05T07:53:04;94872.53;;;3.01;64.68
61961;BME280;47923;42.506;24.192;2023-04-05T07:55:30;95026.06;;;4.08;64.97
61961;BME280;47923;42.506;24.192;2023-04-05T07:57:55;95043.31;;;4.32;63.94
61961;BME280;47923;42.506;24.192;2023-04-05T08:00:22;95004.56;;;4.05;63.51
61961;BME280;47923;42.506;24.192;2023-04-05T08:02:48;94921.72;;;3.42;63.43
61961;BME280;47923;42.506;24.192;2023-04-05T08:05:14;94913.03;;;3.66;62.40
61961;BME280;47923;42.506;24.192;2023-04-05T08:07:39;95057.34;;;4.62;62.64
61961;BME280;47923;42.506;24.192;2023-04-05T08:10:06;94863.81;;;3.34;63.19
61961;BME280;47923;42.506;24.192;2023-04-05T08:12:33;95043.69;;;4.63;61.30
61961;BME280;47923;42.506;24.192;2023-04-05T08:14:58;94940.66;;;4.24;61.31
61961;BME280;47923;42.506;24.192;2023-04-05T08:17:24;95061.88;;;4.82;61.86
61961;BME280;47923;42.506;24.192;2023-04-05T08:19:52;95063.28;;;5.01;61.41
61961;BME280;47923;42.506;24.192;2023-04-05T08:22:18;94980.19;;;4.52;60.41
61961;BME280;47923;42.506;24.192;2023-04-05T08:24:44;94920.47;;;4.14;60.47
61961;BME280;47923;42.506;24.192;2023-04-05T08:27:10;95001.25;;;4.53;60.33
61961;BME280;47923;42.506;24.192;2023-04-05T08:29:35;95062.78;;;5.32;59.19
61961;BME280;47923;42.506;24.192;2023-04-05T08:32:01;95064.34;;;5.69;59.41
61961;BME280;47923;42.506;24.192;2023-04-05T08:34:27;94847.22;;;4.52;58.50
61961;BME280;47923;42.506;24.192;2023-04-05T08:36:57;95059.53;;;5.63;58.03
61961;BME280;47923;42.506;24.192;2023-04-05T08:39:23;95007.06;;;5.62;58.20
61961;BME280;47923;42.506;24.192;2023-04-05T08:42:12;94956.41;;;5.44;56.31
61961;BME280;47923;42.506;24.192;2023-04-05T08:44:40;95072.22;;;6.27;56.20
61961;BME280;47923;42.506;24.192;2023-04-05T08:47:07;94900.84;;;5.17;55.87
61961;BME280;47923;42.506;24.192;2023-04-05T08:49:35;94913.13;;;5.18;54.95
61961;BME280;47923;42.506;24.192;2023-04-05T08:52:02;95073.16;;;5.94;56.18
61961;BME280;47923;42.506;24.192;2023-04-05T08:54:27;94884.44;;;4.45;56.70
61961;BME280;47923;42.506;24.192;2023-04-05T08:56:54;95059.63;;;5.42;57.64
61961;BME280;47923;42.506;24.192;2023-04-05T08:59:24;95071.34;;;5.25;59.35
61961;BME280;47923;42.506;24.192;2023-04-05T09:01:51;95078.41;;;5.30;58.50
61961;BME280;47923;42.506;24.192;2023-04-05T09:04:21;95067.34;;;5.31;59.37
61961;BME280;47923;42.506;24.192;2023-04-05T09:06:49;94995.56;;;5.00;59.06
61961;BME280;47923;42.506;24.192;2023-04-05T09:09:15;95036.75;;;5.08;58.58
61961;BME280;47923;42.506;24.192;2023-04-05T09:11:43;95040.56;;;5.31;58.04
61961;BME280;47923;42.506;24.192;2023-04-05T09:14:08;95090.81;;;5.59;57.29
61961;BME280;47923;42.506;24.192;2023-04-05T09:16:39;95094.72;;;5.73;56.60
61961;BME280;47923;42.506;24.192;2023-04-05T09:19:06;95092.50;;;6.00;56.19
61961;BME280;47923;42.506;24.192;2023-04-05T09:22:12;95095.31;;;6.44;56.07
61961;BME280;47923;42.506;24.192;2023-04-05T09:24:42;95104.19;;;6.60;54.32
61961;BME280;47923;42.506;24.192;2023-04-05T09:27:12;95089.47;;;6.82;54.03
61961;BME280;47923;42.506;24.192;2023-04-05T09:29:39;95045.41;;;6.55;52.63
61961;BME280;47923;42.506;24.192;2023-04-05T09:32:06;95007.28;;;6.21;52.75
61961;BME280;47923;42.506;24.192;2023-04-05T09:34:34;95006.53;;;6.08;51.98
61961;BME280;47923;42.506;24.192;2023-04-05T09:39:37;95093.28;;;7.25;52.22
61961;BME280;47923;42.506;24.192;2023-04-05T09:42:04;95100.97;;;7.26;51.95
61961;BME280;47923;42.506;24.192;2023-04-05T09:44:54;95103.97;;;7.53;51.57
61961;BME280;47923;42.506;24.192;2023-04-05T09:47:26;95035.53;;;7.34;50.35
61961;BME280;47923;42.506;24.192;2023-04-05T09:49:56;94876.66;;;6.37;49.80
61961;BME280;47923;42.506;24.192;2023-04-05T09:52:29;95099.78;;;7.71;49.33
61961;BME280;47923;42.506;24.192;2023-04-05T09:55:00;94988.84;;;7.07;49.65
61961;BME280;47923;42.506;24.192;2023-04-05T09:57:27;95093.25;;;8.03;49.93
61961;BME280;47923;42.506;24.192;2023-04-05T09:59:54;95094.78;;;8.20;48.70
61961;BME280;47923;42.506;24.192;2023-04-05T10:02:23;94973.28;;;7.48;50.00
61961;BME280;47923;42.506;24.192;2023-04-05T10:04:48;95102.13;;;8.39;48.11
61961;BME280;47923;42.506;24.192;2023-04-05T10:07:16;95006.19;;;8.12;47.58
61961;BME280;47923;42.506;24.192;2023-04-05T10:09:44;94999.59;;;8.09;48.16
61961;BME280;47923;42.506;24.192;2023-04-05T10:12:12;95042.44;;;8.95;46.90
61961;BME280;47923;42.506;24.192;2023-04-05T10:14:38;94689.50;;;6.50;46.67
61961;BME280;47923;42.506;24.192;2023-04-05T10:22:29;94803.66;;;7.34;45.88
61961;BME280;47923;42.506;24.192;2023-04-05T10:25:08;95084.84;;;9.40;46.02
61961;BME280;47923;42.506;24.192;2023-04-05T10:27:47;95064.34;;;9.36;45.59
61961;BME280;47923;42.506;24.192;2023-04-05T10:30:15;94900.88;;;8.13;45.28
61961;BME280;47923;42.506;24.192;2023-04-05T10:38:16;95078.75;;;8.08;49.34
61961;BME280;47923;42.506;24.192;2023-04-05T10:40:46;94951.25;;;7.07;48.61
61961;BME280;47923;42.506;24.192;2023-04-05T10:43:15;95076.97;;;7.81;49.71
61961;BME280;47923;42.506;24.192;2023-04-05T10:45:43;95068.72;;;7.89;50.25
61961;BME280;47923;42.506;24.192;2023-04-05T10:50:56;95088.44;;;7.62;50.47
61961;BME280;47923;42.506;24.192;2023-04-05T10:53:24;95034.25;;;7.12;50.79
61961;BME280;47923;42.506;24.192;2023-04-05T10:55:50;95087.81;;;7.05;51.82
61961;BME280;47923;42.506;24.192;2023-04-05T10:58:16;95071.75;;;6.93;51.03
61961;BME280;47923;42.506;24.192;2023-04-05T11:00:43;95033.56;;;6.16;52.71
61961;BME280;47923;42.506;24.192;2023-04-05T11:03:09;95040.75;;;6.12;53.72
61961;BME280;47923;42.506;24.192;2023-04-05T11:05:35;95110.88;;;6.66;53.95
61961;BME280;47923;42.506;24.192;2023-04-05T11:08:04;95112.09;;;6.41;54.11
61961;BME280;47923;42.506;24.192;2023-04-05T11:10:31;95050.34;;;6.00;54.89
61961;BME280;47923;42.506;24.192;2023-04-05T11:13:02;95097.22;;;6.31;55.58
61961;BME280;47923;42.506;24.192;2023-04-05T11:15:29;94683.38;;;3.33;56.04
61961;BME280;47923;42.506;24.192;2023-04-05T11:20:38;94954.25;;;4.77;58.22
61961;BME280;47923;42.506;24.192;2023-04-05T11:23:04;95105.00;;;5.83;57.63
61961;BME280;47923;42.506;24.192;2023-04-05T11:25:30;95112.81;;;5.76;56.92
61961;BME280;47923;42.506;24.192;2023-04-05T11:28:00;94976.56;;;4.68;56.00
61961;BME280;47923;42.506;24.192;2023-04-05T11:30:46;94953.34;;;4.48;57.37
61961;BME280;47923;42.506;24.192;2023-04-05T11:33:35;95089.34;;;5.37;56.56
61961;BME280;47923;42.506;24.192;2023-04-05T11:36:01;95114.81;;;5.67;56.30
61961;BME280;47923;42.506;24.192;2023-04-05T11:38:27;95098.41;;;5.44;56.33
61961;BME280;47923;42.506;24.192;2023-04-05T11:41:10;95105.31;;;5.82;56.17
61961;BME280;47923;42.506;24.192;2023-04-05T11:43:36;94869.25;;;4.12;56.16
61961;BME280;47923;42.506;24.192;2023-04-05T11:46:03;94476.50;;;1.58;56.24
61961;BME280;47923;42.506;24.192;2023-04-05T11:48:34;95127.34;;;5.75;56.79
61961;BME280;47923;42.506;24.192;2023-04-05T11:51:06;95111.78;;;5.57;56.22
61961;BME280;47923;42.506;24.192;2023-04-05T11:53:33;95104.75;;;5.40;56.20
61961;BME280;47923;42.506;24.192;2023-04-05T11:56:09;95055.38;;;5.16;56.29
61961;BME280;47923;42.506;24.192;2023-04-05T11:58:37;94949.69;;;4.65;56.34
61961;BME280;47923;42.506;24.192;2023-04-05T12:01:04;95125.53;;;5.67;55.21
61961;BME280;47923;42.506;24.192;2023-04-05T12:03:31;95110.56;;;5.78;56.17
61961;BME280;47923;42.506;24.192;2023-04-05T12:05:58;95092.59;;;5.67;54.55
61961;BME280;47923;42.506;24.192;2023-04-05T12:08:40;95077.19;;;5.76;54.95
61961;BME280;47923;42.506;24.192;2023-04-05T12:11:11;95109.00;;;6.02;53.45
61961;BME280;47923;42.506;24.192;2023-04-05T12:13:37;95118.63;;;6.15;53.54
61961;BME280;47923;42.506;24.192;2023-04-05T12:16:05;95026.50;;;5.59;53.26
61961;BME280;47923;42.506;24.192;2023-04-05T12:18:32;95121.41;;;6.06;53.13
61961;BME280;47923;42.506;24.192;2023-04-05T12:20:58;95066.78;;;5.99;53.21
61961;BME280;47923;42.506;24.192;2023-04-05T12:23:25;95121.31;;;6.03;53.54
61961;BME280;47923;42.506;24.192;2023-04-05T12:25:54;95092.41;;;5.96;53.59
61961;BME280;47923;42.506;24.192;2023-04-05T12:28:20;95049.16;;;5.49;54.31
61961;BME280;47923;42.506;24.192;2023-04-05T12:33:15;95013.88;;;5.10;54.83
61961;BME280;47923;42.506;24.192;2023-04-05T12:35:50;94804.53;;;3.62;55.04
61961;BME280;47923;42.506;24.192;2023-04-05T12:38:16;95111.25;;;5.75;55.68
61961;BME280;47923;42.506;24.192;2023-04-05T12:40:42;95108.13;;;5.73;54.56
61961;BME280;47923;42.506;24.192;2023-04-05T12:43:08;95125.22;;;5.93;54.20
61961;BME280;47923;42.506;24.192;2023-04-05T12:45:34;95119.63;;;6.11;53.76
61961;BME280;47923;42.506;24.192;2023-04-05T12:48:14;95113.03;;;6.20;53.42
61961;BME280;47923;42.506;24.192;2023-04-05T12:50:45;95032.28;;;5.73;52.42
61961;BME280;47923;42.506;24.192;2023-04-05T12:53:18;95005.16;;;5.74;52.77
61961;BME280;47923;42.506;24.192;2023-04-05T12:55:56;95121.41;;;6.71;51.58
61961;BME280;47923;42.506;24.192;2023-04-05T12:58:31;95127.88;;;6.70;51.44
61961;BME280;47923;42.506;24.192;2023-04-05T13:00:57;94906.31;;;5.20;51.68
61961;BME280;47923;42.506;24.192;2023-04-05T13:03:25;94965.59;;;5.71;50.69
61961;BME280;47923;42.506;24.192;2023-04-05T13:05:50;95133.53;;;6.81;51.72
61961;BME280;47923;42.506;24.192;2023-04-05T13:08:16;95098.75;;;6.56;50.25
61961;BME280;47923;42.506;24.192;2023-04-05T13:10:46;95120.22;;;6.84;50.15
61961;BME280;47923;42.506;24.192;2023-04-05T13:13:16;95113.69;;;6.70;50.36
61961;BME280;47923;42.506;24.192;2023-04-05T13:15:42;95110.97;;;6.42;50.71
61961;BME280;47923;42.506;24.192;2023-04-05T13:18:08;95114.06;;;6.56;51.54
61961;BME280;47923;42.506;24.192;2023-04-05T13:20:34;95095.63;;;6.54;51.14
61961;BME280;47923;42.506;24.192;2023-04-05T13:23:00;95097.47;;;6.66;50.53
61961;BME280;47923;42.506;24.192;2023-04-05T13:25:26;95111.63;;;7.07;49.17
61961;BME280;47923;42.506;24.192;2023-04-05T13:27:51;95109.75;;;6.67;49.26
61961;BME280;47923;42.506;24.192;2023-04-05T13:30:17;95077.16;;;6.53;48.77
61961;BME280;47923;42.506;24.192;2023-04-05T13:32:43;95117.41;;;6.53;49.38
61961;BME280;47923;42.506;24.192;2023-04-05T13:35:09;95111.78;;;6.70;49.68